createdAt,value
2019-03-22T00:01:41.011Z,14.77
2019-03-22T00:04:13.705Z,14.00
2019-03-22T00:06:46.166Z,11.47
2019-03-22T00:09:19.027Z,11.73
2019-03-22T00:11:53.337Z,11.33
2019-03-22T00:14:26.059Z,10.40
2019-03-22T00:16:58.563Z,11.07
2019-03-22T00:19:31.140Z,17.30
2019-03-22T00:22:05.806Z,11.90
2019-03-22T00:24:38.328Z,10.67
2019-03-22T00:27:16.667Z,11.87
2019-03-22T00:29:47.591Z,10.77
2019-03-22T00:32:20.199Z,10.53
2019-03-22T00:34:52.822Z,9.77
2019-03-22T00:37:25.579Z,10.40
2019-03-22T00:40:00.238Z,10.43
2019-03-22T00:42:36.313Z,11.47
2019-03-22T00:45:09.509Z,12.07
2019-03-22T00:47:42.002Z,11.53
2019-03-22T00:50:15.133Z,11.67
2019-03-22T00:52:47.734Z,12.50
2019-03-22T00:55:20.204Z,13.27
2019-03-22T00:57:52.745Z,11.63
2019-03-22T01:00:25.491Z,10.60
2019-03-22T01:02:58.188Z,12.27
2019-03-22T01:05:30.690Z,13.23
2019-03-22T01:08:03.370Z,14.57
2019-03-22T01:10:36.064Z,13.50
2019-03-22T01:13:08.551Z,14.77
2019-03-22T01:15:41.183Z,13.00
2019-03-22T01:18:13.854Z,14.50
2019-03-22T01:20:46.459Z,13.87
2019-03-22T01:23:24.585Z,15.77
2019-03-22T01:25:55.522Z,13.70
2019-03-22T01:28:28.288Z,12.63
2019-03-22T01:31:00.946Z,13.83
2019-03-22T01:33:33.476Z,13.77
2019-03-22T01:36:06.329Z,13.40
2019-03-22T01:38:38.947Z,11.93
2019-03-22T01:41:11.432Z,12.37
2019-03-22T01:43:44.020Z,13.80
2019-03-22T01:46:16.624Z,14.40
2019-03-22T01:48:49.134Z,13.57
2019-03-22T01:51:21.629Z,13.30
2019-03-22T01:53:54.302Z,12.93
2019-03-22T01:56:26.898Z,12.33
2019-03-22T01:58:59.559Z,12.77
2019-03-22T02:01:32.049Z,11.70
2019-03-22T02:04:04.517Z,11.00
2019-03-22T02:06:37.081Z,11.37
2019-03-22T02:09:10.261Z,14.63
2019-03-22T02:11:42.810Z,13.10
2019-03-22T02:14:15.288Z,12.33
2019-03-22T02:16:47.722Z,12.97
2019-03-22T02:19:20.608Z,11.87
2019-03-22T02:21:53.138Z,12.33
2019-03-22T02:24:25.672Z,12.23
2019-03-22T02:26:58.114Z,11.17
2019-03-22T02:29:30.690Z,11.57
2019-03-22T02:32:03.214Z,12.83
2019-03-22T02:34:35.696Z,12.17
2019-03-22T02:37:08.228Z,11.73
2019-03-22T02:39:41.160Z,11.47
2019-03-22T02:42:13.796Z,11.87
2019-03-22T02:44:46.462Z,12.00
2019-03-22T02:47:18.970Z,12.87
2019-03-22T02:49:51.494Z,13.57
2019-03-22T02:52:23.958Z,12.73
2019-03-22T02:54:56.438Z,14.27
2019-03-22T02:57:28.871Z,12.57
2019-03-22T03:00:01.364Z,13.30
2019-03-22T03:02:35.069Z,12.73
2019-03-22T03:05:08.685Z,11.63
2019-03-22T03:07:41.181Z,14.43
2019-03-22T03:10:14.144Z,13.50
2019-03-22T03:12:46.766Z,14.40
2019-03-22T03:15:19.246Z,12.37
2019-03-22T03:17:51.751Z,13.30
2019-03-22T03:20:24.232Z,14.10
2019-03-22T03:22:56.694Z,12.87
2019-03-22T03:25:29.157Z,13.63
2019-03-22T03:28:01.648Z,11.97
2019-03-22T03:30:34.237Z,11.23
2019-03-22T03:33:06.864Z,11.73
2019-03-22T03:35:39.342Z,13.33
2019-03-22T03:38:11.972Z,12.10
2019-03-22T03:40:44.433Z,12.97
2019-03-22T03:43:16.961Z,11.43
2019-03-22T03:45:49.470Z,12.73
2019-03-22T03:48:22.291Z,14.17
2019-03-22T03:50:54.941Z,12.43
2019-03-22T03:53:27.415Z,15.53
2019-03-22T03:55:59.873Z,14.97
2019-03-22T03:58:32.411Z,13.03
2019-03-22T04:01:04.953Z,14.53
2019-03-22T04:03:37.423Z,13.13
2019-03-22T04:06:12.329Z,12.20
2019-03-22T04:08:44.872Z,13.90
2019-03-22T04:11:17.347Z,14.93
2019-03-22T04:13:49.881Z,14.03
2019-03-22T04:16:22.372Z,12.77
2019-03-22T04:18:54.838Z,11.67
2019-03-22T04:21:27.349Z,12.47
2019-03-22T04:23:59.839Z,13.03
2019-03-22T04:26:32.318Z,13.57
2019-03-22T04:29:07.969Z,12.87
2019-03-22T04:31:39.092Z,15.87
2019-03-22T04:34:11.552Z,12.50
2019-03-22T04:36:44.063Z,14.17
2019-03-22T04:39:16.673Z,13.20
2019-03-22T04:41:49.454Z,13.43
2019-03-22T04:44:22.422Z,13.17
2019-03-22T04:46:55.845Z,12.40
2019-03-22T04:49:29.503Z,16.33
2019-03-22T04:52:02.234Z,13.17
2019-03-22T04:54:37.881Z,13.27
2019-03-22T04:57:12.976Z,11.33
2019-03-22T04:59:48.545Z,14.40
2019-03-22T05:02:21.916Z,12.80
2019-03-22T05:04:54.961Z,13.37
2019-03-22T05:07:27.630Z,12.50
2019-03-22T05:10:00.628Z,13.93
2019-03-22T05:12:34.104Z,14.73
2019-03-22T05:15:09.469Z,13.93
2019-03-22T05:17:43.241Z,13.40
2019-03-22T05:20:17.370Z,13.90
2019-03-22T05:22:51.151Z,12.50
2019-03-22T05:25:25.530Z,14.27
2019-03-22T05:28:00.303Z,11.63
2019-03-22T05:31:37.525Z,14.20
2019-03-22T05:34:10.231Z,14.53
2019-03-22T05:36:42.707Z,14.10
2019-03-22T05:39:15.231Z,12.63
2019-03-22T05:41:47.730Z,13.20
2019-03-22T05:44:20.249Z,14.90
2019-03-22T05:46:53.954Z,11.53
2019-03-22T05:49:26.431Z,13.13
2019-03-22T05:51:59.395Z,15.87
2019-03-22T05:54:31.898Z,12.63
2019-03-22T05:57:12.834Z,14.97
2019-03-22T05:59:42.648Z,13.50
2019-03-22T06:02:12.887Z,13.70
2019-03-22T06:04:45.420Z,12.57
2019-03-22T06:07:17.902Z,13.30
2019-03-22T06:09:50.361Z,13.90
2019-03-22T06:12:22.975Z,15.03
2019-03-22T06:14:55.603Z,14.17
2019-03-22T06:17:28.124Z,16.50
2019-03-22T06:20:00.657Z,12.50
2019-03-22T06:22:33.305Z,15.03
2019-03-22T06:25:06.210Z,13.47
2019-03-22T06:27:38.713Z,16.40
2019-03-22T06:30:12.140Z,13.90
2019-03-22T06:32:44.584Z,13.60
2019-03-22T06:35:17.073Z,14.33
2019-03-22T06:37:49.697Z,14.23
2019-03-22T06:40:22.202Z,17.20
2019-03-22T06:42:54.809Z,17.33
2019-03-22T06:45:27.364Z,14.20
2019-03-22T06:48:00.198Z,16.07
2019-03-22T06:50:33.941Z,13.50
2019-03-22T06:53:06.461Z,16.97
2019-03-22T06:55:39.195Z,14.83
2019-03-22T06:58:11.822Z,14.13
2019-03-22T07:00:44.315Z,12.20
2019-03-22T07:03:16.787Z,15.37
2019-03-22T07:05:49.715Z,13.90
2019-03-22T07:08:22.323Z,13.80
2019-03-22T07:10:54.734Z,13.13
2019-03-22T07:13:27.352Z,12.77
2019-03-22T07:16:00.249Z,15.10
2019-03-22T07:18:32.848Z,13.73
2019-03-22T07:21:05.422Z,14.00
2019-03-22T07:23:37.930Z,14.57
2019-03-22T07:26:10.550Z,15.87
2019-03-22T07:28:43.143Z,14.77
2019-03-22T07:31:15.637Z,16.40
2019-03-22T07:33:48.367Z,17.17
2019-03-22T07:36:20.859Z,15.63
2019-03-22T07:38:53.445Z,13.87
2019-03-22T07:41:25.987Z,18.50
2019-03-22T07:43:58.567Z,13.37
2019-03-22T07:46:31.106Z,14.93
2019-03-22T07:49:04.264Z,12.87
2019-03-22T07:51:36.983Z,18.17
2019-03-22T07:54:09.528Z,12.43
2019-03-22T07:56:42.038Z,12.83
2019-03-22T07:59:14.621Z,13.47
2019-03-22T08:01:48.327Z,13.73
2019-03-22T08:04:20.961Z,14.90
2019-03-22T08:06:54.836Z,14.20
2019-03-22T08:09:27.395Z,15.40
2019-03-22T08:12:00.075Z,16.43
2019-03-22T08:14:34.139Z,15.13
2019-03-22T08:17:06.773Z,15.17
2019-03-22T08:19:39.311Z,15.40
2019-03-22T08:22:11.969Z,15.20
2019-03-22T08:24:44.515Z,19.63
2019-03-22T08:27:17.042Z,14.57
2019-03-22T08:29:49.619Z,17.70
2019-03-22T08:32:22.127Z,18.60
2019-03-22T08:34:55.563Z,18.13
2019-03-22T08:37:28.010Z,17.97
2019-03-22T08:40:00.523Z,13.83
2019-03-22T08:42:33.057Z,16.47
2019-03-22T08:45:05.822Z,14.57
2019-03-22T08:47:38.500Z,15.93
2019-03-22T08:50:11.289Z,16.30
2019-03-22T08:52:43.900Z,17.30
2019-03-22T08:55:16.534Z,17.10
2019-03-22T08:57:49.047Z,16.03
2019-03-22T09:00:21.781Z,15.73
2019-03-22T09:02:54.297Z,17.23
2019-03-22T09:05:27.915Z,18.67
2019-03-22T09:08:00.552Z,16.47
2019-03-22T09:10:33.097Z,15.77
2019-03-22T09:13:05.742Z,15.37
2019-03-22T09:15:41.930Z,15.60
2019-03-22T09:18:15.405Z,14.87
2019-03-22T09:20:47.121Z,16.60
2019-03-22T09:23:19.712Z,16.10
2019-03-22T09:25:52.302Z,15.37
2019-03-22T09:28:24.888Z,14.20
2019-03-22T09:31:09.443Z,14.73
2019-03-22T09:33:31.589Z,20.13
2019-03-22T09:36:04.133Z,14.70
2019-03-22T09:38:36.743Z,13.57
2019-03-22T09:41:09.621Z,12.13
2019-03-22T09:43:42.308Z,12.67
2019-03-22T09:46:15.372Z,9.63
2019-03-22T09:48:48.105Z,10.00
2019-03-22T09:51:21.956Z,11.03
2019-03-22T09:53:54.664Z,11.70
2019-03-22T09:56:27.318Z,10.07
2019-03-22T09:59:00.010Z,9.20
2019-03-22T10:01:32.811Z,9.67
2019-03-22T10:04:05.703Z,9.73
2019-03-22T10:06:39.452Z,8.57
2019-03-22T10:09:16.033Z,10.97
2019-03-22T10:11:48.602Z,10.50
2019-03-22T10:14:21.635Z,9.27
2019-03-22T10:16:54.215Z,9.63
2019-03-22T10:19:26.900Z,9.03
2019-03-22T10:22:00.043Z,9.93
2019-03-22T10:24:32.604Z,10.63
2019-03-22T10:27:05.471Z,9.20
2019-03-22T10:29:38.149Z,10.70
2019-03-22T10:32:10.777Z,10.43
2019-03-22T10:34:43.394Z,9.23
2019-03-22T10:37:15.999Z,10.75
2019-03-22T10:39:49.072Z,10.03
2019-03-22T10:42:21.676Z,9.68
2019-03-22T10:44:55.855Z,10.28
2019-03-22T10:47:29.023Z,10.03
2019-03-22T10:50:02.342Z,9.58
2019-03-22T10:52:35.544Z,11.90
2019-03-22T10:55:28.472Z,11.90
2019-03-22T10:57:44.905Z,9.58
2019-03-22T11:00:19.497Z,10.60
2019-03-22T11:02:52.673Z,8.68
2019-03-22T11:05:25.933Z,7.53
2019-03-22T11:07:59.110Z,9.53
2019-03-22T11:10:32.219Z,8.23
2019-03-22T11:13:05.694Z,8.83
2019-03-22T11:15:48.081Z,7.55
2019-03-22T11:18:13.603Z,8.78
2019-03-22T11:20:47.018Z,7.87
2019-03-22T11:23:20.086Z,9.30
2019-03-22T11:25:53.291Z,8.75
2019-03-22T11:28:26.544Z,9.00
2019-03-22T11:31:04.719Z,8.65
2019-03-22T11:33:34.932Z,7.67
2019-03-22T11:36:08.061Z,7.33
2019-03-22T11:38:41.251Z,7.40
2019-03-22T11:41:14.390Z,7.28
2019-03-22T11:43:47.546Z,8.25
2019-03-22T11:46:20.722Z,8.78
2019-03-22T11:48:53.893Z,8.85
2019-03-22T11:51:27.187Z,7.15
2019-03-22T11:54:00.428Z,8.23
2019-03-22T11:56:33.590Z,8.63
2019-03-22T11:59:06.666Z,7.83
2019-03-22T12:01:39.904Z,8.68
2019-03-22T12:04:12.978Z,7.95
2019-03-22T12:06:47.324Z,9.18
2019-03-22T12:09:20.411Z,7.78
2019-03-22T12:11:53.546Z,9.58
2019-03-22T12:14:26.727Z,9.40
2019-03-22T12:17:00.314Z,6.95
2019-03-22T12:19:34.446Z,7.92
2019-03-22T12:22:07.921Z,9.28
2019-03-22T12:24:41.157Z,7.62
2019-03-22T12:27:14.267Z,7.25
2019-03-22T12:29:47.522Z,10.30
2019-03-22T12:32:20.770Z,8.10
2019-03-22T12:34:54.209Z,7.47
2019-03-22T12:37:29.280Z,7.90
2019-03-22T12:40:02.511Z,7.58
2019-03-22T12:42:35.757Z,7.78
2019-03-22T12:45:13.518Z,9.60
2019-03-22T12:47:46.753Z,7.08
2019-03-22T12:50:20.009Z,7.58
2019-03-22T12:52:53.968Z,6.92
2019-03-22T12:55:27.184Z,8.38
2019-03-22T12:58:00.372Z,8.55
2019-03-22T13:00:34.165Z,9.13
2019-03-22T13:03:08.565Z,8.98
2019-03-22T13:05:44.223Z,9.13
2019-03-22T13:08:17.310Z,7.03
2019-03-22T13:10:51.217Z,6.47
2019-03-22T13:13:24.368Z,7.58
2019-03-22T13:15:57.479Z,6.33
2019-03-22T13:18:30.706Z,6.53
2019-03-22T13:21:03.853Z,7.33
2019-03-22T13:23:37.094Z,7.35
2019-03-22T13:26:10.260Z,7.62
2019-03-22T13:28:44.584Z,6.62
2019-03-22T13:31:19.227Z,7.95
2019-03-22T13:33:52.364Z,7.65
2019-03-22T13:36:25.505Z,6.83
2019-03-22T13:38:58.620Z,6.17
2019-03-22T13:41:31.842Z,6.17
2019-03-22T13:44:05.183Z,5.37
2019-03-22T13:46:40.446Z,4.92
2019-03-22T13:49:13.393Z,6.10
2019-03-22T13:51:46.581Z,5.20
2019-03-22T13:54:19.790Z,4.05
2019-03-22T13:56:52.887Z,4.25
2019-03-22T13:59:26.144Z,6.22
2019-03-22T14:01:59.360Z,5.17
2019-03-22T14:04:32.416Z,5.55
2019-03-22T14:07:05.727Z,5.62
2019-03-22T14:09:39.033Z,4.72
2019-03-22T14:12:14.165Z,3.42
2019-03-22T14:14:46.775Z,4.62
2019-03-22T14:17:20.120Z,4.05
2019-03-22T14:19:53.310Z,2.85
2019-03-22T14:22:26.634Z,4.30
2019-03-22T14:24:59.836Z,4.20
2019-03-22T14:27:32.991Z,6.60
2019-03-22T14:30:07.428Z,4.12
2019-03-22T14:32:40.635Z,3.65
2019-03-22T14:35:13.904Z,2.72
2019-03-22T14:37:48.831Z,2.83
2019-03-22T14:40:21.997Z,4.08
2019-03-22T14:42:55.130Z,2.75
2019-03-22T14:45:28.386Z,2.90
2019-03-22T14:48:01.672Z,3.37
2019-03-22T14:50:35.029Z,3.05
2019-03-22T14:53:08.374Z,3.80
2019-03-22T14:55:41.418Z,3.35
2019-03-22T14:58:14.721Z,3.72
2019-03-22T15:00:47.839Z,2.75
2019-03-22T15:03:28.101Z,2.40
2019-03-22T15:06:01.430Z,3.33
2019-03-22T15:08:34.581Z,2.20
2019-03-22T15:11:07.792Z,3.10
2019-03-22T15:13:49.753Z,3.00
2019-03-22T15:16:39.948Z,3.40
2019-03-22T15:19:34.254Z,2.85
2019-03-22T15:22:15.134Z,2.20
2019-03-22T15:25:06.821Z,2.45
2019-03-22T15:28:01.340Z,2.67
2019-03-22T15:31:02.690Z,2.03
2019-03-22T15:33:50.615Z,2.77
2019-03-22T15:36:40.992Z,3.10
2019-03-22T15:39:41.367Z,2.67
2019-03-22T15:42:15.173Z,3.15
2019-03-22T15:44:47.835Z,2.77
2019-03-22T15:47:20.876Z,2.60
2019-03-22T15:49:53.600Z,2.60
2019-03-22T15:52:26.387Z,3.03
2019-03-22T15:54:59.062Z,2.10
2019-03-22T15:57:31.727Z,2.03
2019-03-22T16:00:07.950Z,2.43
2019-03-22T16:02:41.905Z,3.40
2019-03-22T16:05:15.640Z,2.33
2019-03-22T16:07:48.335Z,2.47
2019-03-22T16:10:21.132Z,2.00
2019-03-22T16:12:55.167Z,2.00
2019-03-22T16:15:27.892Z,2.17
2019-03-22T16:18:00.614Z,2.40
2019-03-22T16:20:33.951Z,2.70
2019-03-22T16:23:06.550Z,1.83
2019-03-22T16:25:39.305Z,1.93
2019-03-22T16:28:11.963Z,1.60
2019-03-22T16:30:44.674Z,2.80
2019-03-22T16:33:17.286Z,2.00
2019-03-22T16:35:49.895Z,2.37
2019-03-22T16:38:22.646Z,2.30
2019-03-22T16:40:55.431Z,1.87
2019-03-22T16:43:28.103Z,2.13
2019-03-22T16:46:00.769Z,1.83
2019-03-22T16:48:33.474Z,2.53
2019-03-22T16:51:06.226Z,1.70
2019-03-22T16:53:38.826Z,2.10
2019-03-22T16:56:11.484Z,1.70
2019-03-22T16:58:44.043Z,1.87
2019-03-22T17:01:16.691Z,1.30
2019-03-22T17:03:49.446Z,2.70
2019-03-22T17:06:23.196Z,2.83
2019-03-22T17:08:56.000Z,1.40
2019-03-22T17:11:28.722Z,2.50
2019-03-22T17:14:02.452Z,1.40
2019-03-22T17:16:36.141Z,1.30
2019-03-22T17:19:08.791Z,2.27
2019-03-22T17:21:41.462Z,4.20
2019-03-22T17:24:14.145Z,2.97
2019-03-22T17:26:48.666Z,2.67
2019-03-22T17:29:21.350Z,1.10
2019-03-22T17:31:54.028Z,2.00
2019-03-22T17:34:26.738Z,1.63
2019-03-22T17:36:59.440Z,4.07
2019-03-22T17:39:31.991Z,14.73
2019-03-22T17:42:04.717Z,2.90
2019-03-22T17:44:40.346Z,2.63
2019-03-22T17:47:13.031Z,2.33
2019-03-22T17:49:48.351Z,2.93
2019-03-22T17:52:19.932Z,3.03
2019-03-22T17:54:52.603Z,5.60
2019-03-22T17:57:26.624Z,2.47
2019-03-22T17:59:59.330Z,2.27
2019-03-22T18:02:31.932Z,2.80
2019-03-22T18:05:04.892Z,2.27
2019-03-22T18:07:37.695Z,1.40
2019-03-22T18:10:12.212Z,1.73
2019-03-22T18:12:44.877Z,2.37
2019-03-22T18:15:17.602Z,4.07
2019-03-22T18:17:53.137Z,1.97
2019-03-22T18:20:25.963Z,3.37
2019-03-22T18:23:00.419Z,1.77
2019-03-22T18:25:33.193Z,2.57
2019-03-22T18:28:05.933Z,2.80
2019-03-22T18:30:39.686Z,2.57
2019-03-22T18:33:12.348Z,2.43
2019-03-22T18:35:44.960Z,2.53
2019-03-22T18:38:17.524Z,4.07
2019-03-22T18:40:50.064Z,2.50
2019-03-22T18:43:22.598Z,2.53
2019-03-22T18:45:58.516Z,2.60
2019-03-22T18:48:30.815Z,5.67
2019-03-22T18:51:03.478Z,2.70
2019-03-22T18:53:36.069Z,5.73
2019-03-22T18:56:08.667Z,4.43
2019-03-22T18:58:41.382Z,3.50
2019-03-22T19:01:13.935Z,3.03
2019-03-22T19:03:46.914Z,3.27
2019-03-22T19:06:21.732Z,3.87
2019-03-22T19:08:53.832Z,4.23
2019-03-22T19:11:26.514Z,3.17
2019-03-22T19:13:59.212Z,6.67
2019-03-22T19:16:31.886Z,4.07
2019-03-22T19:19:04.427Z,3.83
2019-03-22T19:21:37.189Z,8.13
2019-03-22T19:24:09.707Z,4.07
2019-03-22T19:26:42.312Z,4.67
2019-03-22T19:29:15.216Z,4.93
2019-03-22T19:31:48.867Z,4.43
2019-03-22T19:34:21.672Z,6.00
2019-03-22T19:36:54.254Z,7.37
2019-03-22T19:39:26.962Z,6.60
2019-03-22T19:41:59.690Z,5.67
2019-03-22T19:44:32.483Z,9.53
2019-03-22T19:47:05.305Z,6.70
2019-03-22T19:49:38.079Z,6.43
2019-03-22T19:52:10.689Z,8.40
2019-03-22T19:54:43.401Z,4.50
2019-03-22T19:57:17.009Z,5.63
2019-03-22T19:59:50.629Z,5.67
2019-03-22T20:02:23.313Z,5.47
2019-03-22T20:05:04.463Z,4.97
2019-03-22T20:07:32.264Z,5.33
2019-03-22T20:10:05.717Z,7.30
2019-03-22T20:12:38.385Z,5.33
2019-03-22T20:15:11.669Z,5.40
2019-03-22T20:17:44.316Z,5.07
2019-03-22T20:20:17.455Z,8.40
2019-03-22T20:22:50.108Z,4.00
2019-03-22T20:25:22.882Z,3.77
2019-03-22T20:27:55.532Z,7.30
2019-03-22T20:30:29.441Z,7.00
2019-03-22T20:33:02.036Z,6.97
2019-03-22T20:35:34.752Z,4.83
2019-03-22T20:38:09.207Z,5.27
2019-03-22T20:40:41.887Z,4.67
2019-03-22T20:43:14.590Z,4.70
2019-03-22T20:45:47.122Z,4.37
2019-03-22T20:48:20.080Z,5.53
2019-03-22T20:50:52.715Z,5.93
2019-03-22T20:53:25.375Z,3.33
2019-03-22T20:55:58.152Z,5.43
2019-03-22T20:58:32.209Z,4.40
2019-03-22T21:01:06.332Z,3.90
2019-03-22T21:03:40.102Z,5.60
2019-03-22T21:06:12.788Z,3.33
2019-03-22T21:08:45.510Z,5.37
2019-03-22T21:11:18.413Z,3.80
2019-03-22T21:13:51.139Z,3.57
2019-03-22T21:16:26.659Z,3.37
2019-03-22T21:18:59.489Z,6.67
2019-03-22T21:21:36.679Z,5.17
2019-03-22T21:24:08.735Z,6.83
2019-03-22T21:26:40.844Z,4.83
2019-03-22T21:29:13.498Z,4.23
2019-03-22T21:31:47.331Z,7.13
2019-03-22T21:34:19.897Z,6.50
2019-03-22T21:36:52.608Z,7.63
2019-03-22T21:39:25.409Z,6.50
2019-03-22T21:41:58.217Z,10.70
2019-03-22T21:44:30.793Z,6.90
2019-03-22T21:47:03.498Z,10.27
2019-03-22T21:49:36.114Z,8.13
2019-03-22T21:52:08.729Z,6.30
2019-03-22T21:54:41.624Z,6.20
2019-03-22T21:57:14.339Z,9.20
2019-03-22T21:59:47.015Z,6.90
2019-03-22T22:02:19.840Z,6.00
2019-03-22T22:04:52.566Z,7.90
2019-03-22T22:07:25.240Z,6.13
2019-03-22T22:09:57.852Z,7.43
2019-03-22T22:12:30.451Z,6.37
2019-03-22T22:15:02.995Z,7.10
2019-03-22T22:17:35.698Z,6.23
2019-03-22T22:20:08.541Z,6.10
2019-03-22T22:22:41.914Z,8.20
2019-03-22T22:25:14.682Z,6.30
2019-03-22T22:27:47.248Z,3.13
2019-03-22T22:30:19.940Z,3.40
2019-03-22T22:32:53.989Z,4.50
2019-03-22T22:35:26.651Z,4.37
2019-03-22T22:37:59.451Z,3.53
2019-03-22T22:40:31.981Z,3.07
2019-03-22T22:43:06.442Z,2.97
2019-03-22T22:45:39.104Z,3.10
2019-03-22T22:48:11.765Z,6.47
2019-03-22T22:50:44.887Z,4.00
2019-03-22T22:53:17.508Z,3.67
2019-03-22T22:55:50.107Z,4.40
2019-03-22T22:58:22.710Z,4.77
2019-03-22T23:00:55.344Z,3.20
2019-03-22T23:03:28.009Z,4.20
2019-03-22T23:06:09.052Z,3.10
2019-03-22T23:08:35.164Z,7.70
2019-03-22T23:11:07.981Z,4.63
2019-03-22T23:13:40.543Z,4.03
2019-03-22T23:16:13.206Z,6.27
2019-03-22T23:18:45.894Z,3.93
2019-03-22T23:21:18.557Z,4.13
2019-03-22T23:23:51.056Z,6.93
2019-03-22T23:26:23.610Z,3.67
2019-03-22T23:28:56.154Z,3.10
2019-03-22T23:31:30.471Z,3.93
2019-03-22T23:34:04.202Z,4.63
2019-03-22T23:36:36.811Z,3.33
2019-03-22T23:39:10.578Z,5.03
2019-03-22T23:41:43.132Z,6.87
2019-03-22T23:44:15.931Z,6.67
2019-03-22T23:46:48.593Z,6.37
2019-03-22T23:49:21.545Z,8.27
2019-03-22T23:51:54.313Z,8.67
2019-03-22T23:54:26.937Z,6.43
2019-03-22T23:56:59.683Z,5.80
2019-03-22T23:59:32.220Z,4.80
